sensor_id;sensor_type;location;lat;lon;timestamp;P1;durP1;ratioP1;P2;durP2;ratioP2
39264;SDS011;42646;51.910;7.724;2023-02-07T00:00:02;21.15;;;12.27;;
39264;SDS011;42646;51.910;7.724;2023-02-07T00:02:37;17.40;;;10.63;;
39264;SDS011;42646;51.910;7.724;2023-02-07T00:05:09;19.33;;;11.48;;
39264;SDS011;42646;51.910;7.724;2023-02-07T00:07:37;18.52;;;11.95;;
39264;SDS011;42646;51.910;7.724;2023-02-07T00:10:06;20.05;;;11.65;;
39264;SDS011;42646;51.910;7.724;2023-02-07T00:12:36;16.83;;;10.82;;
39264;SDS011;42646;51.910;7.724;2023-02-07T00:15:04;19.20;;;10.80;;
39264;SDS011;42646;51.910;7.724;2023-02-07T00:17:33;21.08;;;11.38;;
39264;SDS011;42646;51.910;7.724;2023-02-07T00:20:01;21.77;;;10.80;;
39264;SDS011;42646;51.910;7.724;2023-02-07T00:22:31;19.73;;;11.23;;
39264;SDS011;42646;51.910;7.724;2023-02-07T00:24:59;21.40;;;11.30;;
39264;SDS011;42646;51.910;7.724;2023-02-07T00:27:27;19.98;;;11.07;;
39264;SDS011;42646;51.910;7.724;2023-02-07T00:29:55;18.08;;;11.02;;
39264;SDS011;42646;51.910;7.724;2023-02-07T00:32:23;19.40;;;11.45;;
39264;SDS011;42646;51.910;7.724;2023-02-07T00:34:50;19.63;;;10.85;;
39264;SDS011;42646;51.910;7.724;2023-02-07T00:37:18;21.92;;;11.20;;
39264;SDS011;42646;51.910;7.724;2023-02-07T00:39:47;18.50;;;11.73;;
39264;SDS011;42646;51.910;7.724;2023-02-07T00:42:15;18.40;;;10.77;;
39264;SDS011;42646;51.910;7.724;2023-02-07T00:44:43;16.60;;;10.25;;
39264;SDS011;42646;51.910;7.724;2023-02-07T00:47:11;17.80;;;11.35;;
39264;SDS011;42646;51.910;7.724;2023-02-07T00:49:38;21.58;;;11.88;;
39264;SDS011;42646;51.910;7.724;2023-02-07T00:52:07;20.25;;;10.98;;
39264;SDS011;42646;51.910;7.724;2023-02-07T00:54:36;20.83;;;11.00;;
39264;SDS011;42646;51.910;7.724;2023-02-07T00:57:05;17.23;;;9.93;;
39264;SDS011;42646;51.910;7.724;2023-02-07T00:59:34;18.52;;;10.65;;
39264;SDS011;42646;51.910;7.724;2023-02-07T01:02:02;16.48;;;9.93;;
39264;SDS011;42646;51.910;7.724;2023-02-07T01:04:32;17.75;;;10.63;;
39264;SDS011;42646;51.910;7.724;2023-02-07T01:07:02;16.85;;;10.70;;
39264;SDS011;42646;51.910;7.724;2023-02-07T01:09:30;16.30;;;10.25;;
39264;SDS011;42646;51.910;7.724;2023-02-07T01:11:58;16.63;;;9.70;;
39264;SDS011;42646;51.910;7.724;2023-02-07T01:14:27;17.27;;;9.35;;
39264;SDS011;42646;51.910;7.724;2023-02-07T01:16:55;15.27;;;9.85;;
39264;SDS011;42646;51.910;7.724;2023-02-07T01:19:23;17.95;;;10.32;;
39264;SDS011;42646;51.910;7.724;2023-02-07T01:21:50;16.40;;;10.60;;
39264;SDS011;42646;51.910;7.724;2023-02-07T01:24:18;16.90;;;10.65;;
39264;SDS011;42646;51.910;7.724;2023-02-07T01:26:49;15.18;;;9.60;;
39264;SDS011;42646;51.910;7.724;2023-02-07T01:29:16;15.68;;;10.38;;
39264;SDS011;42646;51.910;7.724;2023-02-07T01:31:45;15.50;;;9.48;;
39264;SDS011;42646;51.910;7.724;2023-02-07T01:34:13;14.82;;;9.68;;
39264;SDS011;42646;51.910;7.724;2023-02-07T01:36:43;14.65;;;9.80;;
39264;SDS011;42646;51.910;7.724;2023-02-07T01:39:10;16.98;;;10.02;;
39264;SDS011;42646;51.910;7.724;2023-02-07T01:41:39;16.20;;;10.35;;
39264;SDS011;42646;51.910;7.724;2023-02-07T01:47:14;15.95;;;9.68;;
39264;SDS011;42646;51.910;7.724;2023-02-07T01:49:45;15.13;;;9.73;;
39264;SDS011;42646;51.910;7.724;2023-02-07T01:52:16;18.63;;;10.30;;
39264;SDS011;42646;51.910;7.724;2023-02-07T01:54:47;16.37;;;10.53;;
39264;SDS011;42646;51.910;7.724;2023-02-07T01:57:18;17.02;;;10.35;;
39264;SDS011;42646;51.910;7.724;2023-02-07T01:59:53;17.98;;;10.98;;
39264;SDS011;42646;51.910;7.724;2023-02-07T02:02:25;16.75;;;10.30;;
39264;SDS011;42646;51.910;7.724;2023-02-07T02:04:57;16.58;;;10.88;;
39264;SDS011;42646;51.910;7.724;2023-02-07T02:07:25;18.65;;;11.25;;
39264;SDS011;42646;51.910;7.724;2023-02-07T02:09:58;16.67;;;10.50;;
39264;SDS011;42646;51.910;7.724;2023-02-07T02:15:25;19.23;;;11.05;;
39264;SDS011;42646;51.910;7.724;2023-02-07T02:18:12;17.92;;;10.65;;
39264;SDS011;42646;51.910;7.724;2023-02-07T02:21:11;15.27;;;10.25;;
39264;SDS011;42646;51.910;7.724;2023-02-07T02:24:07;17.58;;;10.07;;
39264;SDS011;42646;51.910;7.724;2023-02-07T02:26:53;18.27;;;10.15;;
39264;SDS011;42646;51.910;7.724;2023-02-07T02:32:52;15.93;;;10.27;;
39264;SDS011;42646;51.910;7.724;2023-02-07T02:35:41;15.50;;;10.60;;
39264;SDS011;42646;51.910;7.724;2023-02-07T02:38:20;18.38;;;10.35;;
39264;SDS011;42646;51.910;7.724;2023-02-07T02:41:22;17.52;;;10.50;;
39264;SDS011;42646;51.910;7.724;2023-02-07T02:44:23;16.15;;;10.38;;
39264;SDS011;42646;51.910;7.724;2023-02-07T02:46:59;16.95;;;10.68;;
39264;SDS011;42646;51.910;7.724;2023-02-07T02:49:32;14.77;;;9.98;;
39264;SDS011;42646;51.910;7.724;2023-02-07T02:52:03;17.15;;;10.57;;
39264;SDS011;42646;51.910;7.724;2023-02-07T02:54:33;16.85;;;10.52;;
39264;SDS011;42646;51.910;7.724;2023-02-07T02:57:28;18.33;;;10.75;;
39264;SDS011;42646;51.910;7.724;2023-02-07T03:03:13;14.73;;;10.18;;
39264;SDS011;42646;51.910;7.724;2023-02-07T03:05:59;17.45;;;10.63;;
39264;SDS011;42646;51.910;7.724;2023-02-07T03:11:37;15.40;;;9.88;;
39264;SDS011;42646;51.910;7.724;2023-02-07T03:14:15;19.13;;;10.77;;
39264;SDS011;42646;51.910;7.724;2023-02-07T03:16:56;15.90;;;9.65;;
39264;SDS011;42646;51.910;7.724;2023-02-07T03:19:32;18.92;;;10.43;;
39264;SDS011;42646;51.910;7.724;2023-02-07T03:22:09;17.73;;;10.23;;
39264;SDS011;42646;51.910;7.724;2023-02-07T03:24:41;17.38;;;10.60;;
39264;SDS011;42646;51.910;7.724;2023-02-07T03:27:13;15.13;;;10.48;;
39264;SDS011;42646;51.910;7.724;2023-02-07T03:29:45;15.60;;;10.23;;
39264;SDS011;42646;51.910;7.724;2023-02-07T03:32:15;16.05;;;10.65;;
39264;SDS011;42646;51.910;7.724;2023-02-07T03:34:48;16.52;;;10.30;;
39264;SDS011;42646;51.910;7.724;2023-02-07T03:37:21;17.05;;;10.55;;
39264;SDS011;42646;51.910;7.724;2023-02-07T03:39:52;19.02;;;10.38;;
39264;SDS011;42646;51.910;7.724;2023-02-07T03:42:21;17.40;;;10.43;;
39264;SDS011;42646;51.910;7.724;2023-02-07T03:44:54;19.25;;;10.95;;
39264;SDS011;42646;51.910;7.724;2023-02-07T03:50:19;17.95;;;10.60;;
39264;SDS011;42646;51.910;7.724;2023-02-07T03:52:52;17.52;;;10.70;;
39264;SDS011;42646;51.910;7.724;2023-02-07T03:55:19;17.63;;;10.75;;
39264;SDS011;42646;51.910;7.724;2023-02-07T03:57:49;18.48;;;10.85;;
39264;SDS011;42646;51.910;7.724;2023-02-07T04:00:19;14.73;;;10.02;;
39264;SDS011;42646;51.910;7.724;2023-02-07T04:02:47;17.60;;;10.80;;
39264;SDS011;42646;51.910;7.724;2023-02-07T04:05:15;16.35;;;10.18;;
39264;SDS011;42646;51.910;7.724;2023-02-07T04:07:44;15.95;;;10.13;;
39264;SDS011;42646;51.910;7.724;2023-02-07T04:13:32;18.08;;;10.88;;
39264;SDS011;42646;51.910;7.724;2023-02-07T04:16:00;16.23;;;10.75;;
39264;SDS011;42646;51.910;7.724;2023-02-07T04:18:30;16.13;;;9.85;;
39264;SDS011;42646;51.910;7.724;2023-02-07T04:21:01;17.67;;;10.55;;
39264;SDS011;42646;51.910;7.724;2023-02-07T04:23:30;15.73;;;10.25;;
39264;SDS011;42646;51.910;7.724;2023-02-07T04:26:22;17.95;;;9.80;;
39264;SDS011;42646;51.910;7.724;2023-02-07T04:28:52;14.40;;;9.65;;
39264;SDS011;42646;51.910;7.724;2023-02-07T04:31:22;17.92;;;10.38;;
39264;SDS011;42646;51.910;7.724;2023-02-07T04:33:50;13.60;;;9.50;;
39264;SDS011;42646;51.910;7.724;2023-02-07T04:36:19;14.48;;;10.20;;
39264;SDS011;42646;51.910;7.724;2023-02-07T04:38:47;15.45;;;9.70;;
39264;SDS011;42646;51.910;7.724;2023-02-07T04:41:18;19.20;;;10.30;;
39264;SDS011;42646;51.910;7.724;2023-02-07T04:43:47;17.38;;;9.52;;
39264;SDS011;42646;51.910;7.724;2023-02-07T04:46:20;15.95;;;9.93;;
39264;SDS011;42646;51.910;7.724;2023-02-07T04:48:50;15.75;;;10.55;;
39264;SDS011;42646;51.910;7.724;2023-02-07T04:51:19;16.83;;;9.52;;
39264;SDS011;42646;51.910;7.724;2023-02-07T04:53:50;16.27;;;10.27;;
39264;SDS011;42646;51.910;7.724;2023-02-07T04:56:18;15.80;;;9.65;;
39264;SDS011;42646;51.910;7.724;2023-02-07T04:59:11;17.23;;;10.02;;
39264;SDS011;42646;51.910;7.724;2023-02-07T05:01:41;19.30;;;9.98;;
39264;SDS011;42646;51.910;7.724;2023-02-07T05:04:08;15.05;;;10.38;;
39264;SDS011;42646;51.910;7.724;2023-02-07T05:06:36;16.92;;;10.77;;
39264;SDS011;42646;51.910;7.724;2023-02-07T05:09:08;16.35;;;9.57;;
39264;SDS011;42646;51.910;7.724;2023-02-07T05:14:30;15.68;;;10.05;;
39264;SDS011;42646;51.910;7.724;2023-02-07T05:16:59;15.98;;;10.25;;
39264;SDS011;42646;51.910;7.724;2023-02-07T05:19:30;16.85;;;10.55;;
39264;SDS011;42646;51.910;7.724;2023-02-07T05:21:59;18.45;;;11.85;;
39264;SDS011;42646;51.910;7.724;2023-02-07T05:24:27;23.52;;;14.98;;
39264;SDS011;42646;51.910;7.724;2023-02-07T05:26:55;31.98;;;17.95;;
39264;SDS011;42646;51.910;7.724;2023-02-07T05:29:23;30.63;;;18.70;;
39264;SDS011;42646;51.910;7.724;2023-02-07T05:31:51;28.48;;;18.42;;
39264;SDS011;42646;51.910;7.724;2023-02-07T05:34:38;28.10;;;17.73;;
39264;SDS011;42646;51.910;7.724;2023-02-07T05:37:06;29.73;;;17.70;;
39264;SDS011;42646;51.910;7.724;2023-02-07T05:39:33;31.27;;;17.80;;
39264;SDS011;42646;51.910;7.724;2023-02-07T05:42:01;27.90;;;16.27;;
39264;SDS011;42646;51.910;7.724;2023-02-07T05:44:29;26.55;;;15.63;;
39264;SDS011;42646;51.910;7.724;2023-02-07T05:46:56;24.23;;;14.45;;
39264;SDS011;42646;51.910;7.724;2023-02-07T05:49:24;20.42;;;13.50;;
39264;SDS011;42646;51.910;7.724;2023-02-07T05:51:55;19.42;;;11.45;;
39264;SDS011;42646;51.910;7.724;2023-02-07T05:54:48;19.80;;;11.90;;
39264;SDS011;42646;51.910;7.724;2023-02-07T05:57:19;18.63;;;11.20;;
39264;SDS011;42646;51.910;7.724;2023-02-07T05:59:48;17.33;;;10.73;;
39264;SDS011;42646;51.910;7.724;2023-02-07T06:02:16;18.40;;;11.05;;
39264;SDS011;42646;51.910;7.724;2023-02-07T06:04:45;17.13;;;10.85;;
39264;SDS011;42646;51.910;7.724;2023-02-07T06:07:14;20.02;;;11.40;;
39264;SDS011;42646;51.910;7.724;2023-02-07T06:09:42;19.48;;;11.95;;
39264;SDS011;42646;51.910;7.724;2023-02-07T06:12:10;16.38;;;10.52;;
39264;SDS011;42646;51.910;7.724;2023-02-07T06:14:38;18.17;;;10.98;;
39264;SDS011;42646;51.910;7.724;2023-02-07T06:17:10;16.33;;;10.38;;
39264;SDS011;42646;51.910;7.724;2023-02-07T06:19:38;15.70;;;9.77;;
39264;SDS011;42646;51.910;7.724;2023-02-07T06:22:07;16.42;;;9.57;;
39264;SDS011;42646;51.910;7.724;2023-02-07T06:24:37;15.15;;;9.52;;
39264;SDS011;42646;51.910;7.724;2023-02-07T06:27:08;16.77;;;9.30;;
39264;SDS011;42646;51.910;7.724;2023-02-07T06:29:36;15.55;;;9.60;;
39264;SDS011;42646;51.910;7.724;2023-02-07T06:32:04;16.77;;;9.93;;
39264;SDS011;42646;51.910;7.724;2023-02-07T06:34:33;15.30;;;9.32;;
39264;SDS011;42646;51.910;7.724;2023-02-07T06:37:01;14.57;;;9.95;;
39264;SDS011;42646;51.910;7.724;2023-02-07T06:39:29;15.20;;;9.63;;
39264;SDS011;42646;51.910;7.724;2023-02-07T06:42:23;14.93;;;9.05;;
39264;SDS011;42646;51.910;7.724;2023-02-07T06:44:51;15.23;;;9.82;;
39264;SDS011;42646;51.910;7.724;2023-02-07T06:47:23;17.33;;;9.82;;
39264;SDS011;42646;51.910;7.724;2023-02-07T06:49:52;19.30;;;11.27;;
39264;SDS011;42646;51.910;7.724;2023-02-07T06:52:20;14.70;;;9.18;;
39264;SDS011;42646;51.910;7.724;2023-02-07T06:54:48;14.00;;;9.10;;
39264;SDS011;42646;51.910;7.724;2023-02-07T06:57:18;16.13;;;9.52;;
39264;SDS011;42646;51.910;7.724;2023-02-07T06:59:47;15.00;;;9.77;;
39264;SDS011;42646;51.910;7.724;2023-02-07T07:02:14;15.75;;;9.85;;
39264;SDS011;42646;51.910;7.724;2023-02-07T07:04:42;17.23;;;9.05;;
39264;SDS011;42646;51.910;7.724;2023-02-07T07:07:10;17.23;;;10.48;;
39264;SDS011;42646;51.910;7.724;2023-02-07T07:09:38;15.77;;;9.50;;
39264;SDS011;42646;51.910;7.724;2023-02-07T07:12:07;16.13;;;9.60;;
39264;SDS011;42646;51.910;7.724;2023-02-07T07:14:34;15.10;;;9.93;;
39264;SDS011;42646;51.910;7.724;2023-02-07T07:17:03;14.93;;;9.55;;
39264;SDS011;42646;51.910;7.724;2023-02-07T07:19:31;15.40;;;9.73;;
39264;SDS011;42646;51.910;7.724;2023-02-07T07:22:02;13.77;;;9.60;;
39264;SDS011;42646;51.910;7.724;2023-02-07T07:24:31;16.92;;;9.75;;
39264;SDS011;42646;51.910;7.724;2023-02-07T07:26:58;14.60;;;9.70;;
39264;SDS011;42646;51.910;7.724;2023-02-07T07:29:26;15.93;;;10.13;;
39264;SDS011;42646;51.910;7.724;2023-02-07T07:31:54;15.10;;;10.40;;
39264;SDS011;42646;51.910;7.724;2023-02-07T07:34:24;16.20;;;9.55;;
39264;SDS011;42646;51.910;7.724;2023-02-07T07:36:51;17.48;;;10.32;;
39264;SDS011;42646;51.910;7.724;2023-02-07T07:39:27;14.85;;;10.05;;
39264;SDS011;42646;51.910;7.724;2023-02-07T07:41:56;17.17;;;10.43;;
39264;SDS011;42646;51.910;7.724;2023-02-07T07:44:43;15.70;;;9.45;;
39264;SDS011;42646;51.910;7.724;2023-02-07T07:47:11;17.10;;;10.15;;
39264;SDS011;42646;51.910;7.724;2023-02-07T07:49:42;17.35;;;10.23;;
39264;SDS011;42646;51.910;7.724;2023-02-07T07:52:10;15.52;;;9.70;;
39264;SDS011;42646;51.910;7.724;2023-02-07T07:54:37;14.85;;;10.25;;
39264;SDS011;42646;51.910;7.724;2023-02-07T07:57:05;14.82;;;9.73;;
39264;SDS011;42646;51.910;7.724;2023-02-07T07:59:33;14.35;;;9.52;;
39264;SDS011;42646;51.910;7.724;2023-02-07T08:02:02;13.75;;;9.23;;
39264;SDS011;42646;51.910;7.724;2023-02-07T08:04:30;16.50;;;10.55;;
39264;SDS011;42646;51.910;7.724;2023-02-07T08:06:59;14.45;;;9.40;;
39264;SDS011;42646;51.910;7.724;2023-02-07T08:09:28;15.85;;;9.45;;
39264;SDS011;42646;51.910;7.724;2023-02-07T08:15:39;16.85;;;10.15;;
39264;SDS011;42646;51.910;7.724;2023-02-07T08:18:09;16.25;;;10.50;;
39264;SDS011;42646;51.910;7.724;2023-02-07T08:20:37;15.85;;;10.68;;
39264;SDS011;42646;51.910;7.724;2023-02-07T08:23:07;17.55;;;10.95;;
39264;SDS011;42646;51.910;7.724;2023-02-07T08:25:35;18.27;;;11.25;;
39264;SDS011;42646;51.910;7.724;2023-02-07T08:28:03;16.52;;;10.45;;
39264;SDS011;42646;51.910;7.724;2023-02-07T08:30:31;14.43;;;10.27;;
39264;SDS011;42646;51.910;7.724;2023-02-07T08:32:59;14.60;;;9.75;;
39264;SDS011;42646;51.910;7.724;2023-02-07T08:35:28;16.00;;;10.93;;
39264;SDS011;42646;51.910;7.724;2023-02-07T08:37:56;16.23;;;10.40;;
39264;SDS011;42646;51.910;7.724;2023-02-07T08:40:26;17.40;;;10.95;;
39264;SDS011;42646;51.910;7.724;2023-02-07T08:42:53;16.27;;;10.65;;
39264;SDS011;42646;51.910;7.724;2023-02-07T08:45:21;14.32;;;9.57;;
39264;SDS011;42646;51.910;7.724;2023-02-07T08:47:49;18.92;;;11.43;;
39264;SDS011;42646;51.910;7.724;2023-02-07T08:50:20;17.63;;;11.23;;
39264;SDS011;42646;51.910;7.724;2023-02-07T08:52:47;15.45;;;10.30;;
39264;SDS011;42646;51.910;7.724;2023-02-07T08:55:15;16.80;;;10.65;;
39264;SDS011;42646;51.910;7.724;2023-02-07T08:57:45;16.85;;;10.40;;
39264;SDS011;42646;51.910;7.724;2023-02-07T09:00:13;15.15;;;9.68;;
39264;SDS011;42646;51.910;7.724;2023-02-07T09:02:41;14.40;;;10.00;;
39264;SDS011;42646;51.910;7.724;2023-02-07T09:05:13;17.08;;;10.55;;
39264;SDS011;42646;51.910;7.724;2023-02-07T09:07:40;15.20;;;10.75;;
39264;SDS011;42646;51.910;7.724;2023-02-07T09:10:10;14.43;;;10.45;;
39264;SDS011;42646;51.910;7.724;2023-02-07T09:12:38;15.50;;;10.02;;
39264;SDS011;42646;51.910;7.724;2023-02-07T09:15:08;15.23;;;9.48;;
39264;SDS011;42646;51.910;7.724;2023-02-07T09:17:36;15.25;;;9.88;;
39264;SDS011;42646;51.910;7.724;2023-02-07T09:20:04;14.57;;;10.30;;
39264;SDS011;42646;51.910;7.724;2023-02-07T09:22:32;15.75;;;10.50;;
39264;SDS011;42646;51.910;7.724;2023-02-07T09:25:21;13.88;;;9.68;;
39264;SDS011;42646;51.910;7.724;2023-02-07T09:27:48;13.80;;;10.05;;
39264;SDS011;42646;51.910;7.724;2023-02-07T09:30:18;15.57;;;10.30;;
39264;SDS011;42646;51.910;7.724;2023-02-07T09:32:46;15.07;;;9.52;;
39264;SDS011;42646;51.910;7.724;2023-02-07T09:35:15;16.23;;;10.43;;
39264;SDS011;42646;51.910;7.724;2023-02-07T09:37:44;13.98;;;9.82;;
39264;SDS011;42646;51.910;7.724;2023-02-07T09:40:15;13.82;;;9.25;;
39264;SDS011;42646;51.910;7.724;2023-02-07T09:42:47;14.15;;;10.13;;
39264;SDS011;42646;51.910;7.724;2023-02-07T09:45:53;15.68;;;10.23;;
39264;SDS011;42646;51.910;7.724;2023-02-07T09:48:30;17.00;;;10.20;;
39264;SDS011;42646;51.910;7.724;2023-02-07T09:51:03;13.15;;;9.45;;
39264;SDS011;42646;51.910;7.724;2023-02-07T09:53:35;15.48;;;10.05;;
39264;SDS011;42646;51.910;7.724;2023-02-07T09:56:07;13.57;;;10.05;;
39264;SDS011;42646;51.910;7.724;2023-02-07T09:58:39;13.52;;;9.32;;
39264;SDS011;42646;51.910;7.724;2023-02-07T10:03:45;13.45;;;9.13;;
39264;SDS011;42646;51.910;7.724;2023-02-07T10:06:21;13.23;;;8.90;;
39264;SDS011;42646;51.910;7.724;2023-02-07T10:08:53;14.73;;;10.05;;
39264;SDS011;42646;51.910;7.724;2023-02-07T10:11:31;15.05;;;9.90;;
39264;SDS011;42646;51.910;7.724;2023-02-07T10:14:13;14.32;;;9.23;;
39264;SDS011;42646;51.910;7.724;2023-02-07T10:17:12;14.13;;;9.85;;
39264;SDS011;42646;51.910;7.724;2023-02-07T10:19:59;13.45;;;9.48;;
39264;SDS011;42646;51.910;7.724;2023-02-07T10:22:42;14.45;;;9.15;;
39264;SDS011;42646;51.910;7.724;2023-02-07T10:25:22;11.90;;;8.85;;
39264;SDS011;42646;51.910;7.724;2023-02-07T10:28:08;13.40;;;8.77;;
39264;SDS011;42646;51.910;7.724;2023-02-07T10:30:55;14.73;;;8.90;;
39264;SDS011;42646;51.910;7.724;2023-02-07T10:33:30;13.20;;;8.82;;
39264;SDS011;42646;51.910;7.724;2023-02-07T10:36:01;13.40;;;9.27;;
39264;SDS011;42646;51.910;7.724;2023-02-07T10:38:34;11.82;;;8.15;;
39264;SDS011;42646;51.910;7.724;2023-02-07T10:41:09;11.65;;;8.30;;
39264;SDS011;42646;51.910;7.724;2023-02-07T10:43:44;12.68;;;8.57;;
39264;SDS011;42646;51.910;7.724;2023-02-07T10:46:19;11.02;;;8.15;;
39264;SDS011;42646;51.910;7.724;2023-02-07T10:48:52;12.95;;;8.88;;
39264;SDS011;42646;51.910;7.724;2023-02-07T10:51:24;12.10;;;8.57;;
39264;SDS011;42646;51.910;7.724;2023-02-07T10:56:33;10.93;;;8.38;;
39264;SDS011;42646;51.910;7.724;2023-02-07T10:59:22;13.25;;;8.10;;
39264;SDS011;42646;51.910;7.724;2023-02-07T11:01:58;13.37;;;8.33;;
39264;SDS011;42646;51.910;7.724;2023-02-07T11:04:33;12.32;;;8.50;;
39264;SDS011;42646;51.910;7.724;2023-02-07T11:07:06;9.98;;;6.88;;
39264;SDS011;42646;51.910;7.724;2023-02-07T11:09:33;7.97;;;5.40;;
39264;SDS011;42646;51.910;7.724;2023-02-07T11:12:11;8.43;;;5.45;;
39264;SDS011;42646;51.910;7.724;2023-02-07T11:14:45;7.50;;;5.75;;
39264;SDS011;42646;51.910;7.724;2023-02-07T11:17:28;8.90;;;6.03;;
39264;SDS011;42646;51.910;7.724;2023-02-07T11:19:59;8.63;;;6.07;;
39264;SDS011;42646;51.910;7.724;2023-02-07T11:22:30;8.98;;;6.38;;
39264;SDS011;42646;51.910;7.724;2023-02-07T11:25:02;9.45;;;6.13;;
39264;SDS011;42646;51.910;7.724;2023-02-07T11:27:35;8.73;;;5.97;;
39264;SDS011;42646;51.910;7.724;2023-02-07T11:30:06;8.68;;;6.03;;
39264;SDS011;42646;51.910;7.724;2023-02-07T11:32:41;8.63;;;6.15;;
39264;SDS011;42646;51.910;7.724;2023-02-07T11:38:11;7.68;;;5.78;;
39264;SDS011;42646;51.910;7.724;2023-02-07T11:40:46;9.48;;;6.28;;
39264;SDS011;42646;51.910;7.724;2023-02-07T11:43:16;8.05;;;6.13;;
39264;SDS011;42646;51.910;7.724;2023-02-07T11:45:46;7.60;;;5.50;;
39264;SDS011;42646;51.910;7.724;2023-02-07T11:48:16;8.80;;;5.38;;
39264;SDS011;42646;51.910;7.724;2023-02-07T11:50:51;7.85;;;5.50;;
39264;SDS011;42646;51.910;7.724;2023-02-07T11:53:22;7.55;;;5.50;;
39264;SDS011;42646;51.910;7.724;2023-02-07T11:56:19;7.63;;;5.60;;
39264;SDS011;42646;51.910;7.724;2023-02-07T11:58:51;7.55;;;5.55;;
39264;SDS011;42646;51.910;7.724;2023-02-07T12:01:21;7.97;;;5.57;;
39264;SDS011;42646;51.910;7.724;2023-02-07T12:03:53;7.40;;;5.30;;
39264;SDS011;42646;51.910;7.724;2023-02-07T12:06:30;7.40;;;5.63;;
39264;SDS011;42646;51.910;7.724;2023-02-07T12:09:05;7.90;;;5.80;;
39264;SDS011;42646;51.910;7.724;2023-02-07T12:11:47;7.00;;;5.07;;
39264;SDS011;42646;51.910;7.724;2023-02-07T12:14:20;7.30;;;5.40;;
39264;SDS011;42646;51.910;7.724;2023-02-07T12:16:57;7.40;;;5.20;;
39264;SDS011;42646;51.910;7.724;2023-02-07T12:19:52;8.57;;;5.90;;
39264;SDS011;42646;51.910;7.724;2023-02-07T12:22:27;7.43;;;5.15;;
39264;SDS011;42646;51.910;7.724;2023-02-07T12:25:10;6.85;;;5.35;;
39264;SDS011;42646;51.910;7.724;2023-02-07T12:27:49;7.82;;;5.97;;
39264;SDS011;42646;51.910;7.724;2023-02-07T12:30:23;7.28;;;5.10;;
39264;SDS011;42646;51.910;7.724;2023-02-07T12:32:59;8.23;;;5.28;;
39264;SDS011;42646;51.910;7.724;2023-02-07T12:35:36;7.25;;;5.32;;
39264;SDS011;42646;51.910;7.724;2023-02-07T12:38:24;7.07;;;5.18;;
39264;SDS011;42646;51.910;7.724;2023-02-07T12:40:55;7.28;;;5.10;;
39264;SDS011;42646;51.910;7.724;2023-02-07T12:43:28;8.43;;;5.43;;
39264;SDS011;42646;51.910;7.724;2023-02-07T12:48:39;6.95;;;5.07;;
39264;SDS011;42646;51.910;7.724;2023-02-07T12:51:49;7.10;;;5.22;;
39264;SDS011;42646;51.910;7.724;2023-02-07T12:54:29;7.10;;;4.93;;
39264;SDS011;42646;51.910;7.724;2023-02-07T12:57:07;6.35;;;4.72;;
39264;SDS011;42646;51.910;7.724;2023-02-07T12:59:42;7.25;;;5.40;;
39264;SDS011;42646;51.910;7.724;2023-02-07T13:02:26;7.40;;;5.38;;
39264;SDS011;42646;51.910;7.724;2023-02-07T13:08:15;8.27;;;5.57;;
39264;SDS011;42646;51.910;7.724;2023-02-07T13:10:55;8.07;;;5.60;;
39264;SDS011;42646;51.910;7.724;2023-02-07T13:13:30;7.47;;;5.47;;
39264;SDS011;42646;51.910;7.724;2023-02-07T13:16:03;9.50;;;6.05;;
39264;SDS011;42646;51.910;7.724;2023-02-07T13:18:38;7.68;;;5.85;;
39264;SDS011;42646;51.910;7.724;2023-02-07T13:21:16;9.13;;;5.97;;
39264;SDS011;42646;51.910;7.724;2023-02-07T13:23:48;7.70;;;5.22;;
39264;SDS011;42646;51.910;7.724;2023-02-07T13:26:19;8.05;;;5.78;;
39264;SDS011;42646;51.910;7.724;2023-02-07T13:28:50;7.35;;;5.60;;
39264;SDS011;42646;51.910;7.724;2023-02-07T13:31:23;7.97;;;5.53;;
39264;SDS011;42646;51.910;7.724;2023-02-07T13:33:55;8.32;;;5.90;;
39264;SDS011;42646;51.910;7.724;2023-02-07T13:36:26;8.20;;;5.88;;
39264;SDS011;42646;51.910;7.724;2023-02-07T13:39:01;9.15;;;6.18;;
39264;SDS011;42646;51.910;7.724;2023-02-07T13:41:47;7.07;;;5.55;;
39264;SDS011;42646;51.910;7.724;2023-02-07T13:44:25;8.07;;;5.95;;
39264;SDS011;42646;51.910;7.724;2023-02-07T13:50:29;8.07;;;6.25;;
39264;SDS011;42646;51.910;7.724;2023-02-07T13:53:09;9.05;;;5.82;;
39264;SDS011;42646;51.910;7.724;2023-02-07T13:55:49;8.38;;;5.80;;
39264;SDS011;42646;51.910;7.724;2023-02-07T14:01:37;7.57;;;5.65;;
39264;SDS011;42646;51.910;7.724;2023-02-07T14:04:15;9.48;;;6.03;;
39264;SDS011;42646;51.910;7.724;2023-02-07T14:06:45;8.07;;;6.03;;
39264;SDS011;42646;51.910;7.724;2023-02-07T14:09:26;9.27;;;5.85;;
39264;SDS011;42646;51.910;7.724;2023-02-07T14:12:00;8.45;;;6.00;;
39264;SDS011;42646;51.910;7.724;2023-02-07T14:14:32;8.63;;;6.15;;
39264;SDS011;42646;51.910;7.724;2023-02-07T14:17:06;9.25;;;6.03;;
39264;SDS011;42646;51.910;7.724;2023-02-07T14:19:47;8.20;;;5.95;;
39264;SDS011;42646;51.910;7.724;2023-02-07T14:22:20;7.93;;;5.85;;
39264;SDS011;42646;51.910;7.724;2023-02-07T14:24:51;7.40;;;5.47;;
39264;SDS011;42646;51.910;7.724;2023-02-07T14:30:54;6.82;;;5.15;;
39264;SDS011;42646;51.910;7.724;2023-02-07T14:33:28;7.20;;;5.47;;
39264;SDS011;42646;51.910;7.724;2023-02-07T14:36:05;7.32;;;5.50;;
39264;SDS011;42646;51.910;7.724;2023-02-07T14:38:58;8.52;;;5.90;;
39264;SDS011;42646;51.910;7.724;2023-02-07T14:41:32;7.55;;;5.90;;
39264;SDS011;42646;51.910;7.724;2023-02-07T14:44:28;7.60;;;5.78;;
39264;SDS011;42646;51.910;7.724;2023-02-07T14:47:27;9.10;;;6.07;;
39264;SDS011;42646;51.910;7.724;2023-02-07T14:49:57;7.82;;;5.60;;
39264;SDS011;42646;51.910;7.724;2023-02-07T14:52:27;7.53;;;5.80;;
39264;SDS011;42646;51.910;7.724;2023-02-07T14:54:57;7.90;;;5.68;;
39264;SDS011;42646;51.910;7.724;2023-02-07T15:00:27;8.15;;;5.88;;
39264;SDS011;42646;51.910;7.724;2023-02-07T15:06:00;7.85;;;5.50;;
39264;SDS011;42646;51.910;7.724;2023-02-07T15:11:25;7.68;;;5.70;;
39264;SDS011;42646;51.910;7.724;2023-02-07T15:13:54;7.22;;;5.28;;
39264;SDS011;42646;51.910;7.724;2023-02-07T15:18:57;8.00;;;5.60;;
39264;SDS011;42646;51.910;7.724;2023-02-07T15:21:30;8.10;;;5.53;;
39264;SDS011;42646;51.910;7.724;2023-02-07T15:24:02;7.40;;;5.28;;
39264;SDS011;42646;51.910;7.724;2023-02-07T15:26:32;7.60;;;5.88;;
39264;SDS011;42646;51.910;7.724;2023-02-07T15:29:02;8.30;;;5.85;;
39264;SDS011;42646;51.910;7.724;2023-02-07T15:31:36;8.13;;;6.28;;
39264;SDS011;42646;51.910;7.724;2023-02-07T15:37:10;7.45;;;5.45;;
39264;SDS011;42646;51.910;7.724;2023-02-07T15:39:40;8.20;;;5.60;;
39264;SDS011;42646;51.910;7.724;2023-02-07T15:42:11;7.20;;;5.68;;
39264;SDS011;42646;51.910;7.724;2023-02-07T15:44:46;7.82;;;5.78;;
39264;SDS011;42646;51.910;7.724;2023-02-07T15:50:14;8.40;;;5.68;;
39264;SDS011;42646;51.910;7.724;2023-02-07T15:52:48;7.00;;;5.07;;
39264;SDS011;42646;51.910;7.724;2023-02-07T15:55:20;8.70;;;5.80;;
39264;SDS011;42646;51.910;7.724;2023-02-07T15:57:53;7.25;;;5.25;;
39264;SDS011;42646;51.910;7.724;2023-02-07T16:00:23;7.50;;;5.53;;
39264;SDS011;42646;51.910;7.724;2023-02-07T16:02:54;7.20;;;5.23;;
39264;SDS011;42646;51.910;7.724;2023-02-07T16:05:31;7.78;;;5.60;;
39264;SDS011;42646;51.910;7.724;2023-02-07T16:08:03;7.18;;;5.57;;
39264;SDS011;42646;51.910;7.724;2023-02-07T16:10:34;7.32;;;5.50;;
39264;SDS011;42646;51.910;7.724;2023-02-07T16:13:10;7.72;;;5.40;;
39264;SDS011;42646;51.910;7.724;2023-02-07T16:15:51;7.38;;;5.20;;